Time;durP1;ratioP1;P1;durP2;ratioP2;P2;SDS_P1;SDS_P2;PMS_P1;PMS_P2;Temp;Humidity;BMP_temperature;BMP_pressure;BME280_temperature;BME280_humidity;BME280_pressure;Samples;Min_cycle;Max_cycle;Signal;HPM_P1;HPM_P2
2024/04/13 00:00:55;;;;;;;;;;;21.10;46.70;;;;;;1564924;74;700;-68
2024/04/13 00:02:57;;;;;;;;;;;21.20;46.70;;;;;;1558472;74;766;-68
2024/04/13 00:04:58;;;;;;;;;;;21.20;46.80;;;;;;1567245;74;709;-72
2024/04/13 00:07:00;;;;;;;;;;;21.10;46.80;;;;;;1563466;74;1345;-68
2024/04/13 00:09:03;;;;;;;;;;;21.20;46.80;;;;;;1562039;74;1959;-71
2024/04/13 00:11:08;;;;;;;;;;;21.20;46.80;;;;;;1562449;75;703;-71
2024/04/13 00:13:09;;;;;;;;;;;21.20;46.80;;;;;;1563456;74;1577;-69
2024/04/13 00:15:11;;;;;;;;;;;21.20;46.80;;;;;;1567726;75;686;-69
2024/04/13 00:17:14;;;;;;;;;;;21.20;46.80;;;;;;1555069;74;658;-72
2024/04/13 00:19:16;;;;;;;;;;;21.20;46.80;;;;;;1571801;74;1147;-67
2024/04/13 00:21:18;;;;;;;;;;;21.20;46.90;;;;;;1567907;74;709;-70
2024/04/13 00:23:20;;;;;;;;;;;21.20;47.00;;;;;;1564184;74;647;-70
2024/04/13 00:25:22;;;;;;;;;;;21.20;47.00;;;;;;1557762;74;830;-71
2024/04/13 00:27:24;;;;;;;;;;;21.10;47.00;;;;;;1564376;74;783;-68
2024/04/13 00:29:26;;;;;;;;;;;21.20;47.10;;;;;;1565936;74;1986;-69
2024/04/13 00:31:30;;;;;;;;;;;21.20;47.10;;;;;;1559884;75;693;-69
2024/04/13 00:33:31;;;;;;;;;;;21.20;47.10;;;;;;1558091;75;1679;-71
2024/04/13 00:35:33;;;;;;;;;;;21.20;47.10;;;;;;1564405;74;1528;-69
2024/04/13 00:37:35;;;;;;;;;;;21.20;47.10;;;;;;1559195;74;1393;-70
2024/04/13 00:39:37;;;;;;;;;;;21.20;47.10;;;;;;1567288;74;1192;-68
2024/04/13 00:41:39;;;;;;;;;;;21.20;47.10;;;;;;1560002;74;735;-70
2024/04/13 00:43:41;;;;;;;;;;;21.20;47.10;;;;;;1557169;74;729;-71
2024/04/13 00:45:47;;;;;;;;;;;21.20;47.20;;;;;;1563715;74;721;-67
2024/04/13 00:47:46;;;;;;;;;;;21.20;47.20;;;;;;1558609;74;1172;-71
2024/04/13 00:49:48;;;;;;;;;;;21.20;47.20;;;;;;1555981;74;1954;-73
2024/04/13 00:51:51;;;;;;;;;;;21.20;47.30;;;;;;1552220;74;966;-68
2024/04/13 00:53:53;;;;;;;;;;;21.20;47.20;;;;;;1557832;74;715;-70
2024/04/13 00:55:54;;;;;;;;;;;21.10;47.30;;;;;;1559248;74;641;-68
2024/04/13 00:57:57;;;;;;;;;;;21.20;47.30;;;;;;1564243;75;675;-69
2024/04/13 00:59:59;;;;;;;;;;;21.10;47.30;;;;;;1564221;74;1129;-69
2024/04/13 01:02:01;;;;;;;;;;;21.20;47.30;;;;;;1568069;74;613;-71
2024/04/13 01:04:03;;;;;;;;;;;21.20;47.30;;;;;;1563185;74;1538;-70
2024/04/13 01:06:08;;;;;;;;;;;21.20;47.30;;;;;;1559089;75;792;-71
2024/04/13 01:08:09;;;;;;;;;;;21.20;47.30;;;;;;1556552;74;1510;-69
2024/04/13 01:10:16;;;;;;;;;;;21.20;47.30;;;;;;1562088;74;1926;-68
2024/04/13 01:12:14;;;;;;;;;;;21.20;47.30;;;;;;1560565;74;1571;-70
2024/04/13 01:14:17;;;;;;;;;;;21.20;47.30;;;;;;1559322;74;724;-69
2024/04/13 01:16:20;;;;;;;;;;;21.20;47.30;;;;;;1566219;75;747;-69
2024/04/13 01:18:23;;;;;;;;;;;21.20;47.40;;;;;;1568893;74;1561;-68
2024/04/13 01:20:25;;;;;;;;;;;21.10;47.40;;;;;;1565353;74;670;-69
2024/04/13 01:22:27;;;;;;;;;;;21.20;47.40;;;;;;1569536;74;778;-68
2024/04/13 01:24:28;;;;;;;;;;;21.20;47.40;;;;;;1564667;74;783;-68
2024/04/13 01:26:37;;;;;;;;;;;21.20;47.40;;;;;;1558214;74;765;-69
2024/04/13 01:28:36;;;;;;;;;;;21.20;47.50;;;;;;1559885;75;1160;-70
2024/04/13 01:30:38;;;;;;;;;;;21.20;47.50;;;;;;1562236;74;1922;-71
2024/04/13 01:32:40;;;;;;;;;;;21.20;47.50;;;;;;1556571;75;1561;-69
2024/04/13 01:34:42;;;;;;;;;;;21.20;47.50;;;;;;1555800;75;756;-66
2024/04/13 01:36:44;;;;;;;;;;;21.20;47.50;;;;;;1558224;75;671;-72
2024/04/13 01:38:46;;;;;;;;;;;21.20;47.60;;;;;;1558853;74;1180;-68
2024/04/13 01:40:48;;;;;;;;;;;21.20;47.60;;;;;;1563127;75;749;-68
2024/04/13 01:42:51;;;;;;;;;;;21.20;47.60;;;;;;1567046;74;618;-68
2024/04/13 01:44:54;;;;;;;;;;;21.20;47.60;;;;;;1567169;75;746;-69
2024/04/13 01:46:58;;;;;;;;;;;21.20;47.60;;;;;;1555466;74;1568;-70
2024/04/13 01:49:00;;;;;;;;;;;21.20;47.70;;;;;;1562914;74;1506;-69
2024/04/13 01:51:04;;;;;;;;;;;21.20;47.70;;;;;;1560278;75;1926;-67
2024/04/13 01:53:05;;;;;;;;;;;21.20;47.60;;;;;;1554526;74;1638;-69
2024/04/13 01:55:07;;;;;;;;;;;21.20;47.60;;;;;;1554085;74;724;-69
2024/04/13 01:57:09;;;;;;;;;;;21.20;47.60;;;;;;1556075;74;732;-68
2024/04/13 01:59:11;;;;;;;;;;;21.10;47.70;;;;;;1555530;74;1125;-71
2024/04/13 02:01:12;;;;;;;;;;;21.20;47.60;;;;;;1549697;74;1571;-72
2024/04/13 02:03:14;;;;;;;;;;;21.20;47.70;;;;;;1553172;74;737;-69
2024/04/13 02:05:16;;;;;;;;;;;21.20;47.70;;;;;;1547716;74;673;-68
2024/04/13 02:07:18;;;;;;;;;;;21.20;47.70;;;;;;1569756;74;757;-69
2024/04/13 02:09:20;;;;;;;;;;;21.20;47.80;;;;;;1560763;74;1940;-71
2024/04/13 02:11:22;;;;;;;;;;;21.20;47.70;;;;;;1560534;74;702;-69
2024/04/13 02:13:24;;;;;;;;;;;21.10;47.70;;;;;;1550736;75;662;-70
2024/04/13 02:15:26;;;;;;;;;;;21.20;47.70;;;;;;1547176;74;1575;-72
2024/04/13 02:17:27;;;;;;;;;;;21.20;47.80;;;;;;1548492;74;704;-70
2024/04/13 02:19:29;;;;;;;;;;;21.20;47.80;;;;;;1560122;74;1124;-70
2024/04/13 02:21:31;;;;;;;;;;;21.20;47.80;;;;;;1540633;74;699;-70
2024/04/13 02:23:35;;;;;;;;;;;21.20;47.80;;;;;;1555947;74;733;-74
2024/04/13 02:25:37;;;;;;;;;;;21.20;47.80;;;;;;1556164;75;1725;-68
2024/04/13 02:27:38;;;;;;;;;;;21.20;47.80;;;;;;1543528;75;669;-73
2024/04/13 02:29:43;;;;;;;;;;;21.10;47.80;;;;;;1556335;74;1950;-69
2024/04/13 02:31:44;;;;;;;;;;;21.20;47.80;;;;;;1558254;74;1653;-68
2024/04/13 02:33:46;;;;;;;;;;;21.20;47.80;;;;;;1544799;74;796;-69
2024/04/13 02:35:50;;;;;;;;;;;21.10;47.80;;;;;;1554094;74;744;-68
2024/04/13 02:37:52;;;;;;;;;;;21.20;47.90;;;;;;1555697;74;1485;-70
2024/04/13 02:39:54;;;;;;;;;;;21.10;47.90;;;;;;1554275;75;1178;-70
2024/04/13 02:41:56;;;;;;;;;;;21.20;48.00;;;;;;1552749;75;676;-70
2024/04/13 02:43:58;;;;;;;;;;;21.20;47.90;;;;;;1561549;74;1330;-71
2024/04/13 02:46:08;;;;;;;;;;;21.20;48.00;;;;;;1547887;74;781;-69
2024/04/13 02:48:07;;;;;;;;;;;21.20;48.00;;;;;;1547336;74;1550;-68
2024/04/13 02:50:08;;;;;;;;;;;21.20;48.00;;;;;;1557649;74;1926;-69
2024/04/13 02:52:10;;;;;;;;;;;21.20;48.00;;;;;;1536441;74;1086;-71
2024/04/13 02:54:12;;;;;;;;;;;21.20;48.10;;;;;;1527717;76;774;-70
2024/04/13 02:56:14;;;;;;;;;;;21.20;48.00;;;;;;1527695;76;1553;-68
2024/04/13 02:58:16;;;;;;;;;;;21.20;48.00;;;;;;1531648;76;1210;-68
2024/04/13 03:00:18;;;;;;;;;;;21.20;48.10;;;;;;1531337;76;678;-68
2024/04/13 03:02:20;;;;;;;;;;;21.20;48.10;;;;;;1519134;76;777;-69
2024/04/13 03:04:22;;;;;;;;;;;21.20;48.10;;;;;;1529086;76;641;-69
2024/04/13 03:06:23;;;;;;;;;;;21.20;48.10;;;;;;1525487;76;692;-70
2024/04/13 03:08:26;;;;;;;;;;;21.20;48.10;;;;;;1527766;76;1159;-71
2024/04/13 03:10:27;;;;;;;;;;;21.20;48.10;;;;;;1529160;76;1911;-72
2024/04/13 03:12:29;;;;;;;;;;;21.20;48.10;;;;;;1530886;76;657;-68
2024/04/13 03:14:31;;;;;;;;;;;21.20;48.20;;;;;;1531926;76;706;-72
2024/04/13 03:16:33;;;;;;;;;;;21.20;48.20;;;;;;1526042;76;725;-73
2024/04/13 03:18:38;;;;;;;;;;;21.20;48.10;;;;;;1533566;76;1147;-68
2024/04/13 03:20:39;;;;;;;;;;;21.20;48.10;;;;;;1530867;76;1645;-71
2024/04/13 03:22:41;;;;;;;;;;;21.20;48.10;;;;;;1524981;76;843;-69
2024/04/13 03:24:43;;;;;;;;;;;21.10;48.20;;;;;;1533637;76;1573;-69
2024/04/13 03:26:50;;;;;;;;;;;21.20;48.10;;;;;;1523429;76;757;-71
2024/04/13 03:28:49;;;;;;;;;;;21.20;48.20;;;;;;1523630;76;1373;-69
2024/04/13 03:30:51;;;;;;;;;;;21.20;48.20;;;;;;1525949;76;1935;-70
2024/04/13 03:32:53;;;;;;;;;;;21.20;48.20;;;;;;1531114;76;786;-72
2024/04/13 03:34:55;;;;;;;;;;;21.20;48.20;;;;;;1521935;76;754;-69
2024/04/13 03:36:57;;;;;;;;;;;21.20;48.20;;;;;;1534258;76;699;-67
2024/04/13 03:38:59;;;;;;;;;;;21.20;48.30;;;;;;1529625;76;1599;-67
2024/04/13 03:41:05;;;;;;;;;;;21.20;48.30;;;;;;1527750;76;640;-68
2024/04/13 03:43:08;;;;;;;;;;;21.20;48.40;;;;;;1525025;76;929;-71
2024/04/13 03:45:10;;;;;;;;;;;21.20;48.40;;;;;;1527638;76;755;-69
2024/04/13 03:47:12;;;;;;;;;;;21.20;48.40;;;;;;1532803;76;713;-68
2024/04/13 03:49:13;;;;;;;;;;;21.20;48.40;;;;;;1527940;76;1150;-68
2024/04/13 03:51:16;;;;;;;;;;;21.20;48.40;;;;;;1529164;76;1929;-67
2024/04/13 03:53:18;;;;;;;;;;;21.20;48.40;;;;;;1568538;74;1557;-68
2024/04/13 03:55:20;;;;;;;;;;;21.20;48.50;;;;;;1565301;74;694;-71
2024/04/13 03:57:22;;;;;;;;;;;21.20;48.50;;;;;;1560163;74;787;-70
2024/04/13 03:59:23;;;;;;;;;;;21.20;48.40;;;;;;1558653;75;1180;-68
2024/04/13 04:01:25;;;;;;;;;;;21.20;48.60;;;;;;1558711;74;688;-71
2024/04/13 04:03:27;;;;;;;;;;;21.20;48.50;;;;;;1568669;74;665;-69
2024/04/13 04:05:29;;;;;;;;;;;21.20;48.50;;;;;;1555597;74;695;-69
2024/04/13 04:07:32;;;;;;;;;;;21.20;48.60;;;;;;1558349;74;1354;-69
2024/04/13 04:09:34;;;;;;;;;;;21.20;48.60;;;;;;1567871;74;1153;-71
2024/04/13 04:11:36;;;;;;;;;;;21.20;48.60;;;;;;1561817;75;1906;-70
2024/04/13 04:13:38;;;;;;;;;;;21.20;48.60;;;;;;1566202;74;668;-69
2024/04/13 04:15:41;;;;;;;;;;;21.20;48.60;;;;;;1562556;74;820;-71
2024/04/13 04:17:43;;;;;;;;;;;21.20;48.60;;;;;;1559901;74;675;-68
2024/04/13 04:19:45;;;;;;;;;;;21.20;48.50;;;;;;1571239;74;1098;-69
2024/04/13 04:21:48;;;;;;;;;;;21.20;48.60;;;;;;1558662;74;1529;-69
2024/04/13 04:23:50;;;;;;;;;;;21.20;48.60;;;;;;1566130;74;802;-69
2024/04/13 04:25:52;;;;;;;;;;;21.20;48.60;;;;;;1565825;74;659;-69
2024/04/13 04:27:55;;;;;;;;;;;21.20;48.70;;;;;;1567134;74;716;-67
2024/04/13 04:29:57;;;;;;;;;;;21.20;48.60;;;;;;1566793;74;1124;-69
2024/04/13 04:31:58;;;;;;;;;;;21.20;48.70;;;;;;1558276;74;1969;-71
2024/04/13 04:34:00;;;;;;;;;;;21.10;48.60;;;;;;1565150;74;742;-68
2024/04/13 04:36:02;;;;;;;;;;;21.10;48.60;;;;;;1566167;74;1325;-71
2024/04/13 04:38:04;;;;;;;;;;;21.20;48.60;;;;;;1568937;75;659;-69
2024/04/13 04:40:09;;;;;;;;;;;21.20;48.70;;;;;;1569020;74;706;-71
2024/04/13 04:42:11;;;;;;;;;;;21.20;48.70;;;;;;1563929;75;736;-69
2024/04/13 04:44:13;;;;;;;;;;;21.20;48.70;;;;;;1570101;75;779;-71
2024/04/13 04:46:15;;;;;;;;;;;21.10;48.80;;;;;;1562473;75;651;-69
2024/04/13 04:48:17;;;;;;;;;;;21.20;48.70;;;;;;1559518;74;1145;-70
2024/04/13 04:50:19;;;;;;;;;;;21.20;48.70;;;;;;1553032;74;1953;-72
2024/04/13 04:52:21;;;;;;;;;;;21.10;48.70;;;;;;1551971;74;972;-71
2024/04/13 04:54:22;;;;;;;;;;;21.20;48.60;;;;;;1566057;74;641;-68
2024/04/13 04:56:26;;;;;;;;;;;21.10;48.70;;;;;;1565529;74;740;-69
2024/04/13 04:58:28;;;;;;;;;;;21.20;48.80;;;;;;1567444;75;1178;-69
2024/04/13 05:00:30;;;;;;;;;;;21.20;48.60;;;;;;1567946;74;668;-68
2024/04/13 05:02:31;;;;;;;;;;;21.20;48.70;;;;;;1568804;74;767;-70
2024/04/13 05:04:33;;;;;;;;;;;21.20;48.70;;;;;;1560735;74;1574;-70
2024/04/13 05:06:35;;;;;;;;;;;21.20;48.70;;;;;;1569985;74;705;-69
2024/04/13 05:08:37;;;;;;;;;;;21.20;48.70;;;;;;1566229;74;1164;-70
2024/04/13 05:10:39;;;;;;;;;;;21.10;48.70;;;;;;1563905;74;1944;-69
2024/04/13 05:12:41;;;;;;;;;;;21.20;48.70;;;;;;1568582;74;667;-70
2024/04/13 05:14:43;;;;;;;;;;;21.20;48.80;;;;;;1567684;74;615;-69
2024/04/13 05:16:45;;;;;;;;;;;21.20;48.80;;;;;;1562881;75;691;-71
2024/04/13 05:18:47;;;;;;;;;;;21.20;48.80;;;;;;1562576;74;1702;-70
2024/04/13 05:20:49;;;;;;;;;;;21.20;48.80;;;;;;1563164;74;707;-71
2024/04/13 05:22:51;;;;;;;;;;;21.20;48.80;;;;;;1565287;75;746;-71
2024/04/13 05:24:53;;;;;;;;;;;21.10;48.80;;;;;;1568674;74;777;-70
2024/04/13 05:26:56;;;;;;;;;;;21.20;48.80;;;;;;1565377;74;797;-70
2024/04/13 05:28:58;;;;;;;;;;;21.20;48.90;;;;;;1567143;74;1152;-69
2024/04/13 05:31:02;;;;;;;;;;;21.20;48.90;;;;;;1571228;74;1926;-70
2024/04/13 05:33:04;;;;;;;;;;;21.20;48.90;;;;;;1566686;74;1666;-71
2024/04/13 05:35:06;;;;;;;;;;;21.20;48.90;;;;;;1562986;74;756;-71
2024/04/13 05:37:08;;;;;;;;;;;21.20;48.90;;;;;;1567583;74;728;-68
2024/04/13 05:39:10;;;;;;;;;;;21.20;48.90;;;;;;1568922;74;1176;-70
2024/04/13 05:41:12;;;;;;;;;;;21.10;48.90;;;;;;1562962;74;702;-69
2024/04/13 05:43:14;;;;;;;;;;;21.20;48.90;;;;;;1568502;74;726;-69
2024/04/13 05:45:16;;;;;;;;;;;21.20;48.90;;;;;;1565221;74;1514;-69
2024/04/13 05:47:18;;;;;;;;;;;21.20;48.90;;;;;;1567788;75;684;-70
2024/04/13 05:49:20;;;;;;;;;;;21.10;48.90;;;;;;1566079;74;1175;-71
2024/04/13 05:51:22;;;;;;;;;;;21.20;48.90;;;;;;1561849;74;1937;-71
2024/04/13 05:53:24;;;;;;;;;;;21.20;48.90;;;;;;1559299;75;1020;-71
2024/04/13 05:55:26;;;;;;;;;;;21.20;48.90;;;;;;1554144;74;734;-70
2024/04/13 05:57:31;;;;;;;;;;;21.10;48.90;;;;;;1550866;74;701;-77
2024/04/13 05:59:32;;;;;;;;;;;21.20;48.90;;;;;;1552819;74;1553;-70
2024/04/13 06:01:34;;;;;;;;;;;21.20;48.90;;;;;;1553703;75;674;-67
2024/04/13 06:03:38;;;;;;;;;;;21.20;49.00;;;;;;1551936;74;630;-70
2024/04/13 06:05:41;;;;;;;;;;;21.20;48.90;;;;;;1550597;74;1492;-73
2024/04/13 06:07:43;;;;;;;;;;;21.20;48.90;;;;;;1550990;74;709;-71
2024/04/13 06:09:45;;;;;;;;;;;21.20;48.90;;;;;;1549774;74;1127;-73
2024/04/13 06:11:47;;;;;;;;;;;21.20;48.90;;;;;;1552184;74;1908;-74
2024/04/13 06:13:49;;;;;;;;;;;21.20;48.90;;;;;;1554301;74;1550;-70
2024/04/13 06:15:51;;;;;;;;;;;21.20;48.90;;;;;;1551253;74;652;-70
2024/04/13 06:17:53;;;;;;;;;;;21.20;48.90;;;;;;1554382;74;718;-69
2024/04/13 06:19:55;;;;;;;;;;;21.20;48.90;;;;;;1556728;74;1113;-68
2024/04/13 06:21:57;;;;;;;;;;;21.20;48.90;;;;;;1545068;74;726;-70
2024/04/13 06:23:59;;;;;;;;;;;21.20;48.90;;;;;;1548280;75;694;-69
2024/04/13 06:26:00;;;;;;;;;;;21.20;48.90;;;;;;1555506;74;714;-68
2024/04/13 06:28:02;;;;;;;;;;;21.20;48.90;;;;;;1550874;75;1524;-70
2024/04/13 06:30:05;;;;;;;;;;;21.20;48.90;;;;;;1545221;75;1145;-74
2024/04/13 06:32:07;;;;;;;;;;;21.20;48.90;;;;;;1546871;74;1951;-72
2024/04/13 06:34:10;;;;;;;;;;;21.20;49.10;;;;;;1544778;74;721;-69
2024/04/13 06:36:12;;;;;;;;;;;21.30;49.20;;;;;;1555683;74;761;-68
2024/04/13 06:38:16;;;;;;;;;;;21.30;49.00;;;;;;1548412;74;1152;-68
2024/04/13 06:40:17;;;;;;;;;;;21.30;48.80;;;;;;1554762;74;707;-69
2024/04/13 06:42:19;;;;;;;;;;;21.30;48.60;;;;;;1551106;75;1541;-68
2024/04/13 06:44:21;;;;;;;;;;;21.30;48.40;;;;;;1554384;74;719;-69
2024/04/13 06:46:23;;;;;;;;;;;21.30;48.40;;;;;;1552898;74;619;-70
2024/04/13 06:48:25;;;;;;;;;;;21.30;48.30;;;;;;1548850;74;1150;-70
2024/04/13 06:50:27;;;;;;;;;;;21.30;48.10;;;;;;1549256;74;706;-69
2024/04/13 06:52:29;;;;;;;;;;;21.30;48.20;;;;;;1547924;75;1928;-68
2024/04/13 06:54:30;;;;;;;;;;;21.30;48.10;;;;;;1548234;74;1035;-68
2024/04/13 06:56:32;;;;;;;;;;;21.30;48.10;;;;;;1566540;74;1316;-68
2024/04/13 06:58:34;;;;;;;;;;;21.20;47.90;;;;;;1564280;74;1183;-69
2024/04/13 07:00:36;;;;;;;;;;;21.30;48.00;;;;;;1564787;74;667;-69
2024/04/13 07:02:38;;;;;;;;;;;21.20;47.80;;;;;;1561032;74;766;-74
2024/04/13 07:04:40;;;;;;;;;;;21.30;48.10;;;;;;1571489;74;653;-72
2024/04/13 07:06:42;;;;;;;;;;;21.30;47.90;;;;;;1553453;74;565;-70
2024/04/13 07:08:45;;;;;;;;;;;21.30;48.00;;;;;;1567047;74;1145;-70
2024/04/13 07:10:47;;;;;;;;;;;21.30;48.10;;;;;;1557981;74;1487;-67
2024/04/13 07:12:48;;;;;;;;;;;21.30;48.10;;;;;;1561451;74;1941;-74
2024/04/13 07:14:50;;;;;;;;;;;21.40;48.10;;;;;;1563072;74;712;-73
2024/04/13 07:16:52;;;;;;;;;;;21.30;48.00;;;;;;1563370;74;743;-69
2024/04/13 07:18:54;;;;;;;;;;;21.30;47.90;;;;;;1563082;74;1113;-72
2024/04/13 07:20:56;;;;;;;;;;;21.40;47.90;;;;;;1559912;74;716;-68
2024/04/13 07:22:58;;;;;;;;;;;21.40;47.80;;;;;;1568288;74;702;-71
2024/04/13 07:25:00;;;;;;;;;;;21.40;47.80;;;;;;1562630;75;1444;-71
2024/04/13 07:27:02;;;;;;;;;;;21.40;47.80;;;;;;1571723;74;718;-73
2024/04/13 07:29:03;;;;;;;;;;;21.50;47.90;;;;;;1569901;74;1268;-69
2024/04/13 07:31:05;;;;;;;;;;;21.40;47.80;;;;;;1560893;74;721;-70
2024/04/13 07:33:07;;;;;;;;;;;21.40;47.80;;;;;;1566521;74;1952;-70
2024/04/13 07:35:09;;;;;;;;;;;21.40;47.80;;;;;;1562584;74;687;-72
2024/04/13 07:37:11;;;;;;;;;;;21.40;47.80;;;;;;1567766;74;708;-71
2024/04/13 07:39:13;;;;;;;;;;;21.40;47.80;;;;;;1560883;74;1636;-73
2024/04/13 07:41:15;;;;;;;;;;;21.40;47.80;;;;;;1564067;74;672;-73
2024/04/13 07:43:17;;;;;;;;;;;21.40;47.80;;;;;;1564445;74;653;-70
2024/04/13 07:45:18;;;;;;;;;;;21.50;47.90;;;;;;1562284;74;775;-73
2024/04/13 07:47:20;;;;;;;;;;;21.40;47.70;;;;;;1564331;74;679;-73
2024/04/13 07:49:22;;;;;;;;;;;22.00;48.10;;;;;;1560448;74;1143;-71
2024/04/13 07:51:24;;;;;;;;;;;21.40;47.80;;;;;;1565477;74;1946;-70
2024/04/13 07:53:30;;;;;;;;;;;21.50;47.80;;;;;;1569240;74;1579;-71
2024/04/13 07:55:29;;;;;;;;;;;21.50;47.80;;;;;;1551713;74;1615;-70
2024/04/13 07:57:31;;;;;;;;;;;21.50;47.80;;;;;;1549985;74;725;-73
2024/04/13 07:59:33;;;;;;;;;;;21.50;47.80;;;;;;1552249;74;1153;-75
2024/04/13 08:01:35;;;;;;;;;;;21.50;47.90;;;;;;1550883;74;652;-69
2024/04/13 08:03:37;;;;;;;;;;;21.50;47.80;;;;;;1543907;74;612;-72
2024/04/13 08:05:39;;;;;;;;;;;21.50;47.80;;;;;;1548397;74;1341;-74
2024/04/13 08:07:41;;;;;;;;;;;21.50;47.80;;;;;;1552471;75;847;-72
2024/04/13 08:09:43;;;;;;;;;;;21.50;47.80;;;;;;1557685;74;1129;-75
2024/04/13 08:11:44;;;;;;;;;;;21.50;47.80;;;;;;1552756;74;1934;-69
2024/04/13 08:13:46;;;;;;;;;;;21.50;47.80;;;;;;1549379;75;697;-70
2024/04/13 08:15:48;;;;;;;;;;;21.60;47.80;;;;;;1546173;75;658;-71
2024/04/13 08:17:50;;;;;;;;;;;21.50;47.80;;;;;;1550660;74;671;-70
2024/04/13 08:19:52;;;;;;;;;;;21.60;47.80;;;;;;1545797;74;1436;-72
2024/04/13 08:21:54;;;;;;;;;;;21.60;47.70;;;;;;1545483;74;726;-71
2024/04/13 08:23:56;;;;;;;;;;;21.60;47.80;;;;;;1547750;75;745;-75
2024/04/13 08:26:04;;;;;;;;;;;21.50;47.70;;;;;;1553156;74;749;-70
2024/04/13 08:28:06;;;;;;;;;;;21.60;47.80;;;;;;1555467;74;731;-70
2024/04/13 08:30:09;;;;;;;;;;;21.60;47.70;;;;;;1549584;75;750;-73
2024/04/13 08:32:11;;;;;;;;;;;21.60;47.80;;;;;;1550231;74;1904;-74
2024/04/13 08:34:13;;;;;;;;;;;21.60;47.70;;;;;;1549768;75;1480;-72
2024/04/13 08:36:15;;;;;;;;;;;21.60;47.70;;;;;;1560501;74;706;-70
2024/04/13 08:38:17;;;;;;;;;;;21.50;47.70;;;;;;1539615;74;1154;-74
2024/04/13 08:40:19;;;;;;;;;;;21.60;47.70;;;;;;1540239;75;608;-73
2024/04/13 08:42:22;;;;;;;;;;;21.60;47.80;;;;;;1546488;75;745;-71
2024/04/13 08:44:25;;;;;;;;;;;21.60;47.70;;;;;;1545806;75;684;-68
2024/04/13 08:46:27;;;;;;;;;;;21.50;47.70;;;;;;1553088;74;657;-70
2024/04/13 08:48:28;;;;;;;;;;;21.50;47.70;;;;;;1553306;74;1464;-69
2024/04/13 08:50:31;;;;;;;;;;;21.50;47.70;;;;;;1551869;74;704;-70
2024/04/13 08:52:33;;;;;;;;;;;21.60;47.60;;;;;;1555251;74;1946;-70
2024/04/13 08:54:35;;;;;;;;;;;21.60;47.60;;;;;;1550998;74;1014;-70
2024/04/13 08:56:37;;;;;;;;;;;21.60;47.60;;;;;;1552413;74;627;-72
2024/04/13 08:58:39;;;;;;;;;;;21.60;47.60;;;;;;1546426;74;1193;-70
2024/04/13 09:00:42;;;;;;;;;;;21.70;47.70;;;;;;1549983;75;812;-69
2024/04/13 09:02:44;;;;;;;;;;;21.70;47.70;;;;;;1551257;74;1539;-73
2024/04/13 09:04:46;;;;;;;;;;;21.70;47.70;;;;;;1543904;76;682;-71
2024/04/13 09:06:49;;;;;;;;;;;21.60;47.60;;;;;;1556891;75;747;-70
2024/04/13 09:08:51;;;;;;;;;;;21.70;47.70;;;;;;1559181;74;1174;-75
2024/04/13 09:10:53;;;;;;;;;;;21.70;47.70;;;;;;1555772;74;690;-70
2024/04/13 09:12:55;;;;;;;;;;;21.60;47.60;;;;;;1549498;74;1925;-73
2024/04/13 09:15:00;;;;;;;;;;;21.70;47.70;;;;;;1553159;74;715;-73
2024/04/13 09:17:02;;;;;;;;;;;21.70;47.70;;;;;;1551993;75;1377;-74
2024/04/13 09:19:04;;;;;;;;;;;21.70;47.70;;;;;;1554084;74;1153;-72
2024/04/13 09:21:07;;;;;;;;;;;21.60;47.60;;;;;;1556727;74;761;-72
2024/04/13 09:23:10;;;;;;;;;;;21.70;47.70;;;;;;1542240;74;744;-72
2024/04/13 09:25:13;;;;;;;;;;;21.70;47.60;;;;;;1543942;74;794;-70
2024/04/13 09:27:16;;;;;;;;;;;21.60;47.60;;;;;;1556049;74;1696;-70
2024/04/13 09:29:27;;;;;;;;;;;21.70;47.60;;;;;;1554527;75;1139;-71
2024/04/13 09:31:29;;;;;;;;;;;21.70;47.60;;;;;;1554339;74;1535;-71
2024/04/13 09:33:31;;;;;;;;;;;21.70;47.60;;;;;;1547296;74;2066;-73
2024/04/13 09:35:33;;;;;;;;;;;21.70;47.60;;;;;;1547950;74;727;-73
2024/04/13 09:37:35;;;;;;;;;;;21.60;47.50;;;;;;1562765;74;705;-73
2024/04/13 09:39:37;;;;;;;;;;;21.60;47.50;;;;;;1555985;74;1114;-74
2024/04/13 09:41:39;;;;;;;;;;;21.70;47.60;;;;;;1552185;74;754;-70
2024/04/13 09:43:41;;;;;;;;;;;21.70;47.60;;;;;;1555840;75;655;-72
2024/04/13 09:45:45;;;;;;;;;;;21.60;47.60;;;;;;1556762;74;1597;-69
2024/04/13 09:47:46;;;;;;;;;;;21.70;47.60;;;;;;1550334;74;1656;-75
2024/04/13 09:49:51;;;;;;;;;;;21.70;47.60;;;;;;1545057;74;1162;-72
2024/04/13 09:51:53;;;;;;;;;;;21.60;47.60;;;;;;1559549;74;658;-71
2024/04/13 09:53:55;;;;;;;;;;;21.70;47.60;;;;;;1547604;74;1922;-71
2024/04/13 09:55:56;;;;;;;;;;;21.60;47.50;;;;;;1550932;75;986;-73
2024/04/13 09:57:58;;;;;;;;;;;21.60;47.50;;;;;;1525884;77;717;-70
2024/04/13 10:00:01;;;;;;;;;;;21.60;47.30;;;;;;1548037;74;1631;-73
2024/04/13 10:02:03;;;;;;;;;;;21.70;47.50;;;;;;1553053;74;730;-69
2024/04/13 10:04:04;;;;;;;;;;;21.60;47.40;;;;;;1551141;74;742;-72
2024/04/13 10:06:09;;;;;;;;;;;21.60;47.20;;;;;;1542023;74;930;-68
2024/04/13 10:08:10;;;;;;;;;;;21.60;47.00;;;;;;1554262;74;1643;-70
2024/04/13 10:10:13;;;;;;;;;;;21.60;47.10;;;;;;1547713;74;602;-72
2024/04/13 10:12:17;;;;;;;;;;;21.60;47.20;;;;;;1548892;74;1942;-71
2024/04/13 10:14:19;;;;;;;;;;;21.60;46.80;;;;;;1552473;74;801;-72
2024/04/13 10:16:21;;;;;;;;;;;21.60;46.90;;;;;;1547764;75;725;-72
2024/04/13 10:18:22;;;;;;;;;;;21.60;46.90;;;;;;1555644;74;1129;-71
2024/04/13 10:20:26;;;;;;;;;;;21.70;46.60;;;;;;1555337;74;722;-70
2024/04/13 10:22:28;;;;;;;;;;;21.60;46.70;;;;;;1552169;75;713;-71
2024/04/13 10:24:30;;;;;;;;;;;21.60;46.80;;;;;;1552130;75;677;-70
2024/04/13 10:26:32;;;;;;;;;;;21.60;46.90;;;;;;1552835;74;1549;-70
2024/04/13 10:28:34;;;;;;;;;;;21.70;47.00;;;;;;1544568;74;1124;-73
2024/04/13 10:30:43;;;;;;;;;;;21.70;46.80;;;;;;1552864;74;658;-70
2024/04/13 10:32:44;;;;;;;;;;;21.60;46.80;;;;;;1535161;75;1958;-69
2024/04/13 10:34:46;;;;;;;;;;;21.70;46.90;;;;;;1545146;74;711;-70
2024/04/13 10:36:48;;;;;;;;;;;21.60;46.80;;;;;;1550103;74;690;-72
2024/04/13 10:38:52;;;;;;;;;;;21.70;47.00;;;;;;1532447;76;1169;-70
2024/04/13 10:40:54;;;;;;;;;;;21.70;47.00;;;;;;1546227;74;2035;-74
2024/04/13 10:42:57;;;;;;;;;;;21.70;47.00;;;;;;1542674;75;717;-72
2024/04/13 10:44:59;;;;;;;;;;;21.60;46.90;;;;;;1548674;75;951;-69
2024/04/13 10:47:01;;;;;;;;;;;21.70;47.00;;;;;;1558033;74;718;-69
2024/04/13 10:49:04;;;;;;;;;;;21.70;47.00;;;;;;1553874;75;1179;-69
2024/04/13 10:51:06;;;;;;;;;;;21.60;47.00;;;;;;1545939;75;666;-73
2024/04/13 10:53:10;;;;;;;;;;;21.70;47.10;;;;;;1552575;75;1935;-70
2024/04/13 10:55:12;;;;;;;;;;;21.60;46.70;;;;;;1557690;75;1584;-70
2024/04/13 10:57:14;;;;;;;;;;;21.60;46.80;;;;;;1547710;74;1115;-72
2024/04/13 10:59:16;;;;;;;;;;;21.70;47.00;;;;;;1545146;74;1143;-67
2024/04/13 11:01:18;;;;;;;;;;;21.60;46.70;;;;;;1528767;76;1415;-69
2024/04/13 11:03:20;;;;;;;;;;;21.60;46.60;;;;;;1553837;74;796;-69
2024/04/13 11:05:22;;;;;;;;;;;21.70;46.60;;;;;;1558004;74;661;-69
2024/04/13 11:07:24;;;;;;;;;;;21.70;46.60;;;;;;1553662;74;787;-65
2024/04/13 11:09:26;;;;;;;;;;;21.60;46.40;;;;;;1555681;74;1397;-73
2024/04/13 11:11:27;;;;;;;;;;;21.70;46.50;;;;;;1547527;75;693;-69
2024/04/13 11:13:30;;;;;;;;;;;21.70;46.60;;;;;;1555995;75;1942;-70
2024/04/13 11:15:32;;;;;;;;;;;21.70;46.80;;;;;;1550680;74;673;-73
2024/04/13 11:17:34;;;;;;;;;;;21.70;46.80;;;;;;1559236;74;720;-72
2024/04/13 11:19:37;;;;;;;;;;;21.60;46.80;;;;;;1546651;74;1134;-74
2024/04/13 11:21:39;;;;;;;;;;;21.70;46.80;;;;;;1556839;74;818;-71
2024/04/13 11:23:40;;;;;;;;;;;21.70;46.80;;;;;;1555869;75;1544;-71
2024/04/13 11:25:42;;;;;;;;;;;21.70;47.00;;;;;;1557711;74;766;-71
2024/04/13 11:27:44;;;;;;;;;;;21.70;47.00;;;;;;1560812;75;691;-69
2024/04/13 11:29:46;;;;;;;;;;;21.70;47.00;;;;;;1551324;75;1099;-70
2024/04/13 11:31:48;;;;;;;;;;;21.70;47.00;;;;;;1547418;76;801;-69
2024/04/13 11:33:50;;;;;;;;;;;21.70;47.00;;;;;;1547527;75;1939;-71
2024/04/13 11:36:00;;;;;;;;;;;21.70;46.70;;;;;;1554690;76;595;-72
2024/04/13 11:37:59;;;;;;;;;;;21.80;46.70;;;;;;1553629;74;1587;-72
2024/04/13 11:40:01;;;;;;;;;;;21.70;46.30;;;;;;1552266;74;1152;-72
2024/04/13 11:42:08;;;;;;;;;;;21.70;46.50;;;;;;1546601;74;1582;-69
2024/04/13 11:44:07;;;;;;;;;;;21.70;46.60;;;;;;1553558;74;1633;-69
2024/04/13 11:46:10;;;;;;;;;;;21.70;46.50;;;;;;1554054;75;777;-69
2024/04/13 11:48:12;;;;;;;;;;;21.70;46.50;;;;;;1555598;75;1492;-73
2024/04/13 11:50:14;;;;;;;;;;;21.70;46.70;;;;;;1555543;75;1419;-71
2024/04/13 11:52:17;;;;;;;;;;;21.70;46.70;;;;;;1554807;75;765;-70
2024/04/13 11:54:19;;;;;;;;;;;21.70;46.80;;;;;;1553831;74;1922;-73
2024/04/13 11:56:22;;;;;;;;;;;21.70;46.80;;;;;;1557168;74;972;-71
2024/04/13 11:58:24;;;;;;;;;;;21.70;46.70;;;;;;1562493;74;1581;-71
2024/04/13 12:00:26;;;;;;;;;;;21.70;46.80;;;;;;1568987;74;1491;-69
2024/04/13 12:02:28;;;;;;;;;;;21.70;46.70;;;;;;1566423;75;1385;-70
2024/04/13 12:04:30;;;;;;;;;;;21.70;46.80;;;;;;1567101;75;1591;-68
2024/04/13 12:06:32;;;;;;;;;;;21.70;46.80;;;;;;1567691;74;733;-69